createdAt,value
2023-05-16T00:01:40.041Z,99423.94
2023-05-16T00:04:07.603Z,99421.44
2023-05-16T00:06:36.020Z,99414.31
2023-05-16T00:09:03.201Z,99410.06
2023-05-16T00:11:30.950Z,99412.63
2023-05-16T00:13:58.907Z,99413.28
2023-05-16T00:16:26.121Z,99409.25
2023-05-16T00:18:53.690Z,99400.56
2023-05-16T00:21:23.568Z,99383.97
2023-05-16T00:23:52.007Z,99382.75
2023-05-16T00:26:19.514Z,99390.31
2023-05-16T00:28:46.853Z,99386.13
2023-05-16T00:31:14.175Z,99399.53
2023-05-16T00:33:41.640Z,99406.84
2023-05-16T00:36:08.812Z,99404.13
2023-05-16T00:38:35.983Z,99403.47
2023-05-16T00:41:04.363Z,99408.38
2023-05-16T00:43:31.560Z,99408.22
2023-05-16T00:45:58.898Z,99405.25
2023-05-16T00:48:26.414Z,99415.69
2023-05-16T00:50:54.049Z,99411.69
2023-05-16T00:53:23.327Z,99419.31
2023-05-16T00:55:51.562Z,99421.87
2023-05-16T00:58:18.724Z,99419.09
2023-05-16T01:00:48.765Z,99425.38
2023-05-16T01:03:16.526Z,99426.00
2023-05-16T01:05:43.949Z,99416.47
2023-05-16T01:08:12.710Z,99437.06
2023-05-16T01:10:44.345Z,99439.38
2023-05-16T01:13:34.525Z,99443.31
2023-05-16T01:16:21.269Z,99447.81
2023-05-16T01:19:10.465Z,99429.22
2023-05-16T01:21:42.618Z,99406.50
2023-05-16T01:24:14.058Z,99409.19
2023-05-16T01:26:41.539Z,99414.84
2023-05-16T01:29:08.693Z,99419.97
2023-05-16T01:31:35.977Z,99422.34
2023-05-16T01:34:03.517Z,99438.91
2023-05-16T01:36:40.107Z,99431.56
2023-05-16T01:39:09.648Z,99420.44
2023-05-16T01:41:42.170Z,99400.13
2023-05-16T01:44:11.852Z,99397.69
2023-05-16T01:46:39.197Z,99388.16
2023-05-16T01:49:13.223Z,99397.66
2023-05-16T01:51:40.763Z,99389.84
2023-05-16T01:54:09.757Z,99378.16
2023-05-16T01:56:37.084Z,99380.03
2023-05-16T01:59:05.316Z,99375.97
2023-05-16T02:01:32.828Z,99375.00
2023-05-16T02:04:00.453Z,99363.94
2023-05-16T02:06:27.654Z,99363.72
2023-05-16T02:08:55.786Z,99355.94
2023-05-16T02:11:23.292Z,99370.28
2023-05-16T02:13:50.481Z,99379.59
2023-05-16T02:16:17.932Z,99394.31
2023-05-16T02:18:45.952Z,99387.47
2023-05-16T02:21:13.222Z,99386.25
2023-05-16T02:23:40.724Z,99364.59
2023-05-16T02:26:08.127Z,99351.31
2023-05-16T02:28:35.322Z,99351.31
2023-05-16T02:31:04.461Z,99341.41
2023-05-16T02:33:31.609Z,99344.19
2023-05-16T02:35:58.807Z,99344.28
2023-05-16T02:38:26.632Z,99343.00
2023-05-16T02:40:56.059Z,99332.00
2023-05-16T02:43:23.307Z,99347.00
2023-05-16T02:45:50.746Z,99357.22
2023-05-16T02:48:17.903Z,99369.16
2023-05-16T02:50:45.056Z,99373.06
2023-05-16T02:53:12.543Z,99378.34
2023-05-16T02:55:39.850Z,99379.94
2023-05-16T02:58:07.094Z,99381.75
2023-05-16T03:00:34.501Z,99357.75
2023-05-16T03:03:02.331Z,99345.50
2023-05-16T03:05:31.071Z,99343.16
2023-05-16T03:07:58.748Z,99332.06
2023-05-16T03:10:26.432Z,99329.44
2023-05-16T03:12:54.799Z,99326.78
2023-05-16T03:15:22.448Z,99337.22
2023-05-16T03:17:49.726Z,99352.78
2023-05-16T03:20:16.941Z,99360.25
2023-05-16T03:22:45.224Z,99360.75
2023-05-16T03:25:12.474Z,99371.75
2023-05-16T03:27:41.440Z,99371.97
2023-05-16T03:30:09.332Z,99365.19
2023-05-16T03:32:37.877Z,99369.88
2023-05-16T03:35:05.311Z,99363.50
2023-05-16T03:37:33.000Z,99368.13
2023-05-16T03:40:00.180Z,99352.19
2023-05-16T03:42:27.486Z,99353.09
2023-05-16T03:44:54.908Z,99348.62
2023-05-16T03:47:22.385Z,99333.81
2023-05-16T03:49:50.134Z,99330.19
2023-05-16T03:52:17.608Z,99331.97
2023-05-16T03:54:44.739Z,99334.66
2023-05-16T03:57:11.916Z,99333.78
2023-05-16T03:59:39.340Z,99343.63
2023-05-16T04:02:06.594Z,99343.50
2023-05-16T04:04:34.092Z,99342.06
2023-05-16T04:07:01.877Z,99338.84
2023-05-16T04:09:29.011Z,99328.53
2023-05-16T04:11:56.984Z,99339.00
2023-05-16T04:14:24.432Z,99333.62
2023-05-16T04:16:51.917Z,99351.31
2023-05-16T04:19:19.641Z,99358.06
2023-05-16T04:21:46.894Z,99355.66
2023-05-16T04:24:14.081Z,99350.47
2023-05-16T04:26:41.466Z,99350.88
2023-05-16T04:29:08.898Z,99370.91
2023-05-16T04:31:37.182Z,99382.31
2023-05-16T04:34:04.869Z,99391.53
2023-05-16T04:36:32.649Z,99383.47
2023-05-16T04:38:59.820Z,99382.03
2023-05-16T04:41:27.395Z,99388.25
2023-05-16T04:43:54.594Z,99375.84
2023-05-16T04:46:22.036Z,99365.34
2023-05-16T04:48:49.646Z,99373.84
2023-05-16T04:51:16.815Z,99372.50
2023-05-16T04:53:44.077Z,99366.03
2023-05-16T04:56:11.555Z,99374.53
2023-05-16T04:58:39.614Z,99393.91
2023-05-16T05:01:08.154Z,99395.31
2023-05-16T05:03:36.050Z,99388.28
2023-05-16T05:06:03.549Z,99388.41
2023-05-16T05:08:30.871Z,99382.19
2023-05-16T05:10:58.274Z,99388.38
2023-05-16T05:13:25.441Z,99396.22
2023-05-16T05:15:52.566Z,99399.97
2023-05-16T05:18:20.449Z,99400.75
2023-05-16T05:20:47.771Z,99405.31
2023-05-16T05:23:14.903Z,99409.09
2023-05-16T05:25:42.381Z,99400.84
2023-05-16T05:28:09.580Z,99392.28
2023-05-16T05:30:36.979Z,99385.47
2023-05-16T05:33:04.489Z,99391.66
2023-05-16T05:35:31.951Z,99383.75
2023-05-16T05:37:59.224Z,99382.78
2023-05-16T05:40:26.751Z,99386.91
2023-05-16T05:42:53.915Z,99394.97
2023-05-16T05:45:21.140Z,99389.09
2023-05-16T05:47:48.591Z,99368.44
2023-05-16T05:50:16.227Z,99381.13
2023-05-16T05:52:43.403Z,99381.84
2023-05-16T05:55:10.880Z,99373.06
2023-05-16T05:57:38.179Z,99382.06
2023-05-16T06:00:05.722Z,99380.47
2023-05-16T06:02:35.089Z,99370.41
2023-05-16T06:05:02.675Z,99365.47
2023-05-16T06:07:31.173Z,99372.09
2023-05-16T06:09:58.336Z,99367.09
2023-05-16T06:12:25.807Z,99375.66
2023-05-16T06:14:53.200Z,99365.84
2023-05-16T06:17:20.495Z,99373.84
2023-05-16T06:19:47.982Z,99354.78
2023-05-16T06:22:15.156Z,99358.38
2023-05-16T06:24:42.297Z,99353.09
2023-05-16T06:27:09.998Z,99342.34
2023-05-16T06:29:37.170Z,99352.22
2023-05-16T06:32:04.430Z,99354.84
2023-05-16T06:34:32.325Z,99354.72
2023-05-16T06:37:00.010Z,99344.34
2023-05-16T06:39:27.261Z,99345.84
2023-05-16T06:41:56.501Z,99341.22
2023-05-16T06:44:24.173Z,99336.28
2023-05-16T06:46:51.521Z,99338.19
2023-05-16T06:49:19.096Z,99350.16
2023-05-16T06:51:46.330Z,99339.00
2023-05-16T06:54:13.549Z,99347.75
2023-05-16T06:56:41.084Z,99342.59
2023-05-16T06:59:08.299Z,99341.66
2023-05-16T07:01:35.577Z,99341.69
2023-05-16T07:04:03.230Z,99335.56
2023-05-16T07:06:31.158Z,99342.56
2023-05-16T07:08:58.494Z,99346.09
2023-05-16T07:11:26.113Z,99345.94
2023-05-16T07:13:53.368Z,99356.50
2023-05-16T07:16:20.671Z,99356.59
2023-05-16T07:18:48.313Z,99353.97
2023-05-16T07:21:15.572Z,99349.59
2023-05-16T07:23:42.814Z,99332.88
2023-05-16T07:26:12.567Z,99326.62
2023-05-16T07:28:39.795Z,99325.75
2023-05-16T07:31:08.344Z,99339.03
2023-05-16T07:33:35.854Z,99332.06
2023-05-16T07:36:15.371Z,99330.22
2023-05-16T07:38:44.898Z,99325.88
2023-05-16T07:41:12.234Z,99330.06
2023-05-16T07:43:39.473Z,99337.25
2023-05-16T07:46:07.297Z,99321.50
2023-05-16T07:48:34.548Z,99328.53
2023-05-16T07:51:01.764Z,99328.38
2023-05-16T07:53:29.238Z,99321.53
2023-05-16T07:55:56.676Z,99326.41
2023-05-16T07:58:25.283Z,99318.91
2023-05-16T08:00:52.810Z,99330.19
2023-05-16T08:03:20.822Z,99332.75
2023-05-16T08:05:49.114Z,99324.75
2023-05-16T08:08:16.548Z,99327.53
2023-05-16T08:10:44.017Z,99334.19
2023-05-16T08:13:11.210Z,99333.25
2023-05-16T08:15:38.456Z,99336.00
2023-05-16T08:18:07.440Z,99344.34
2023-05-16T08:20:34.681Z,99338.22
2023-05-16T08:23:01.988Z,99335.50
2023-05-16T08:25:29.772Z,99324.97
2023-05-16T08:27:57.762Z,99317.97
2023-05-16T08:30:25.959Z,99313.25
2023-05-16T08:32:53.493Z,99310.09
2023-05-16T08:35:20.700Z,99310.13
2023-05-16T08:37:47.952Z,99307.53
2023-05-16T08:40:15.567Z,99305.56
2023-05-16T08:42:44.709Z,99310.53
2023-05-16T08:45:12.630Z,99303.62
2023-05-16T08:47:41.515Z,99303.75
2023-05-16T08:50:10.123Z,99301.28
2023-05-16T08:52:38.476Z,99306.19
2023-05-16T08:55:11.331Z,99303.09
2023-05-16T08:57:39.077Z,99305.44
2023-05-16T09:00:11.894Z,99305.09
2023-05-16T09:02:40.162Z,99308.09
2023-05-16T09:05:09.154Z,99308.37
2023-05-16T09:07:36.361Z,99307.37
2023-05-16T09:10:04.098Z,99294.50
2023-05-16T09:12:31.585Z,99302.50
2023-05-16T09:14:58.807Z,99300.06
2023-05-16T09:17:36.269Z,99299.22
2023-05-16T09:20:10.348Z,99298.44
2023-05-16T09:22:37.902Z,99298.72
2023-05-16T09:25:06.980Z,99303.56
2023-05-16T09:27:36.342Z,99301.00
2023-05-16T09:30:03.673Z,99299.34
2023-05-16T09:32:31.432Z,99282.84
2023-05-16T09:34:59.090Z,99281.00
2023-05-16T09:37:26.370Z,99285.25
2023-05-16T09:39:55.042Z,99293.38
2023-05-16T09:42:23.864Z,99288.94
2023-05-16T09:44:51.731Z,99294.97
2023-05-16T09:47:19.462Z,99289.97
2023-05-16T09:49:47.351Z,99303.94
2023-05-16T09:52:15.595Z,99307.37
2023-05-16T09:54:42.722Z,99300.41
2023-05-16T09:57:10.556Z,99288.25
2023-05-16T09:59:38.535Z,99296.81
2023-05-16T10:02:06.398Z,99293.28
2023-05-16T10:04:36.974Z,99285.59
2023-05-16T10:07:04.671Z,99292.44
2023-05-16T10:09:35.126Z,99286.97
2023-05-16T10:12:04.301Z,99281.12
2023-05-16T10:14:34.245Z,99296.03
2023-05-16T10:17:01.549Z,99296.59
2023-05-16T10:19:30.533Z,99280.66
2023-05-16T10:22:01.197Z,99275.78
2023-05-16T10:24:29.901Z,99270.44
2023-05-16T10:26:57.052Z,99267.16
2023-05-16T10:29:24.868Z,99265.16
2023-05-16T10:31:52.537Z,99254.87
2023-05-16T10:34:19.779Z,99260.97
2023-05-16T10:36:47.005Z,99261.66
2023-05-16T10:39:15.308Z,99268.75
2023-05-16T10:41:42.747Z,99261.66
2023-05-16T10:44:13.381Z,99264.47
2023-05-16T10:46:41.136Z,99259.16
2023-05-16T10:49:22.027Z,99247.81
2023-05-16T10:52:02.444Z,99225.72
2023-05-16T10:54:36.319Z,99217.13
2023-05-16T10:57:04.582Z,99213.69
2023-05-16T10:59:32.416Z,99218.91
2023-05-16T11:01:59.647Z,99219.72
2023-05-16T11:04:45.262Z,99212.84
2023-05-16T11:07:12.443Z,99208.78
2023-05-16T11:09:41.411Z,99207.41
2023-05-16T11:12:09.470Z,99208.37
2023-05-16T11:14:43.670Z,99197.16
2023-05-16T11:17:11.634Z,99186.47
2023-05-16T11:19:42.180Z,99172.56
2023-05-16T11:22:09.516Z,99169.97
2023-05-16T11:24:38.087Z,99183.09
2023-05-16T11:27:05.597Z,99180.47
2023-05-16T11:29:33.967Z,99178.84
2023-05-16T11:32:02.435Z,99181.34
2023-05-16T11:34:30.528Z,99184.87
2023-05-16T11:36:58.220Z,99187.38
2023-05-16T11:39:25.926Z,99191.84
2023-05-16T11:41:56.205Z,99191.94
2023-05-16T11:44:23.508Z,99183.06
2023-05-16T11:46:51.101Z,99172.69
2023-05-16T11:49:18.446Z,99175.34
2023-05-16T11:51:45.779Z,99179.59
2023-05-16T11:54:13.349Z,99173.50
2023-05-16T11:56:43.639Z,99176.22
2023-05-16T11:59:10.999Z,99163.03
2023-05-16T12:01:39.100Z,99170.94
2023-05-16T12:04:10.943Z,99170.94
2023-05-16T12:06:38.559Z,99173.53
2023-05-16T12:09:12.500Z,99172.66
2023-05-16T12:11:40.756Z,99163.09
2023-05-16T12:14:08.794Z,99167.44
2023-05-16T12:16:37.237Z,99160.44
2023-05-16T12:19:05.582Z,99171.81
2023-05-16T12:21:32.857Z,99176.19
2023-05-16T12:24:00.087Z,99172.69
2023-05-16T12:26:28.355Z,99170.06
2023-05-16T12:28:58.058Z,99162.94
2023-05-16T12:31:31.876Z,99177.91
2023-05-16T12:34:00.093Z,99172.69
2023-05-16T12:36:31.711Z,99156.78
2023-05-16T12:39:05.550Z,99156.84
2023-05-16T12:41:33.036Z,99162.19
2023-05-16T12:44:20.817Z,99162.94
2023-05-16T12:46:51.880Z,99161.75
2023-05-16T12:49:25.253Z,99157.44
2023-05-16T12:51:53.448Z,99177.03
2023-05-16T12:54:22.769Z,99171.78
2023-05-16T12:56:50.320Z,99167.28
2023-05-16T12:59:19.498Z,99156.00
2023-05-16T13:01:46.774Z,99147.19
2023-05-16T13:04:20.012Z,99139.09
2023-05-16T13:06:57.777Z,99136.75
2023-05-16T13:09:29.057Z,99139.28
2023-05-16T13:11:57.783Z,99132.44
2023-05-16T13:14:25.001Z,99120.94
2023-05-16T13:16:52.302Z,99121.94
2023-05-16T13:19:20.033Z,99107.97
2023-05-16T13:21:47.451Z,99100.97
2023-05-16T13:24:14.631Z,99078.22
2023-05-16T13:26:42.189Z,99071.91
2023-05-16T13:29:11.359Z,99063.00
2023-05-16T13:31:38.636Z,99056.31
2023-05-16T13:34:06.928Z,99053.75
2023-05-16T13:36:49.296Z,99051.72
2023-05-16T13:39:22.119Z,99047.56
2023-05-16T13:41:49.529Z,99052.81
2023-05-16T13:44:17.035Z,99049.97
2023-05-16T13:46:44.912Z,99048.25
2023-05-16T13:49:12.155Z,99064.97
2023-05-16T13:51:39.345Z,99048.34
2023-05-16T13:54:06.832Z,99064.72
2023-05-16T13:56:34.022Z,99072.81
2023-05-16T13:59:06.384Z,99071.94
2023-05-16T14:01:36.023Z,99066.16
2023-05-16T14:04:03.656Z,99070.84
2023-05-16T14:06:33.486Z,99060.38
2023-05-16T14:09:00.877Z,99058.31
2023-05-16T14:11:29.364Z,99054.56
2023-05-16T14:13:57.408Z,99055.66
2023-05-16T14:16:25.934Z,99051.00
2023-05-16T14:18:53.488Z,99063.22
2023-05-16T14:21:20.785Z,99052.53
2023-05-16T14:23:49.744Z,99058.97
2023-05-16T14:26:18.445Z,99063.44
2023-05-16T14:28:45.692Z,99066.78
2023-05-16T14:31:13.025Z,99072.97
2023-05-16T14:33:41.179Z,99079.03
2023-05-16T14:36:08.696Z,99096.44
2023-05-16T14:38:36.244Z,99093.53
2023-05-16T14:41:06.022Z,99098.34
2023-05-16T14:43:33.209Z,99099.78
2023-05-16T14:46:00.811Z,99099.56
2023-05-16T14:48:28.975Z,99105.34
2023-05-16T14:50:56.210Z,99108.59
2023-05-16T14:53:23.639Z,99106.81
2023-05-16T14:55:51.198Z,99100.09
2023-05-16T14:58:18.577Z,99093.91
2023-05-16T15:00:45.871Z,99099.25
2023-05-16T15:03:15.715Z,99099.00
2023-05-16T15:05:43.241Z,99092.06
2023-05-16T15:08:10.452Z,99102.81
2023-05-16T15:10:37.968Z,99097.44
2023-05-16T15:13:05.202Z,99099.25
2023-05-16T15:15:33.267Z,99097.53
2023-05-16T15:18:01.550Z,99095.63
2023-05-16T15:20:29.208Z,99090.84
2023-05-16T15:22:56.981Z,99084.59
2023-05-16T15:25:24.500Z,99079.78
2023-05-16T15:27:51.754Z,99069.16
2023-05-16T15:30:18.951Z,99067.47
2023-05-16T15:32:46.628Z,99061.06
2023-05-16T15:35:14.010Z,99067.19
2023-05-16T15:37:41.288Z,99053.06
2023-05-16T15:40:09.245Z,99057.41
2023-05-16T15:42:36.572Z,99056.87
2023-05-16T15:45:03.923Z,99047.13
2023-05-16T15:47:31.631Z,99045.25
2023-05-16T15:49:58.864Z,99042.81
2023-05-16T15:52:26.473Z,99037.25
2023-05-16T15:54:55.216Z,99035.56
2023-05-16T15:57:22.554Z,99040.63
2023-05-16T15:59:49.787Z,99038.72
2023-05-16T16:02:17.312Z,99033.78
2023-05-16T16:04:45.152Z,99032.16
2023-05-16T16:07:12.534Z,99033.97
2023-05-16T16:09:39.774Z,99033.59
2023-05-16T16:12:07.530Z,99024.25
2023-05-16T16:14:34.822Z,99028.31
2023-05-16T16:17:02.093Z,99028.50
2023-05-16T16:19:29.603Z,99037.53
2023-05-16T16:21:56.813Z,99036.12
2023-05-16T16:24:24.000Z,99036.66
2023-05-16T16:26:51.552Z,99035.84
2023-05-16T16:29:18.749Z,99038.41
2023-05-16T16:31:46.068Z,99042.53
2023-05-16T16:34:13.570Z,99047.81
2023-05-16T16:36:41.022Z,99044.62
2023-05-16T16:39:08.311Z,99049.22
2023-05-16T16:41:35.921Z,99044.03
2023-05-16T16:44:03.118Z,99034.25
2023-05-16T16:46:30.436Z,99026.22
2023-05-16T16:48:57.948Z,99029.88
2023-05-16T16:51:25.274Z,99034.38
2023-05-16T16:53:52.486Z,99025.50
2023-05-16T16:56:19.965Z,99028.84
2023-05-16T16:58:47.255Z,99029.88
2023-05-16T17:01:14.591Z,99040.41
2023-05-16T17:03:42.218Z,99044.91
2023-05-16T17:06:09.459Z,99050.06
2023-05-16T17:08:36.697Z,99051.81
2023-05-16T17:11:05.444Z,99054.53
2023-05-16T17:13:34.004Z,99042.91
2023-05-16T17:16:01.927Z,99050.16
2023-05-16T17:18:29.995Z,99041.97
2023-05-16T17:20:57.884Z,99035.13
2023-05-16T17:23:25.211Z,99041.03
2023-05-16T17:25:52.990Z,99032.19
2023-05-16T17:28:20.167Z,99021.06
2023-05-16T17:30:47.411Z,99023.28
2023-05-16T17:33:14.941Z,99016.50
2023-05-16T17:35:42.517Z,99020.06
2023-05-16T17:38:10.399Z,99024.09
2023-05-16T17:40:38.030Z,99024.91
2023-05-16T17:43:05.698Z,99035.28
2023-05-16T17:45:32.980Z,99035.84
2023-05-16T17:48:00.657Z,99040.75
2023-05-16T17:50:29.172Z,99038.75
2023-05-16T17:52:56.426Z,99051.94
2023-05-16T17:55:25.219Z,99051.69
2023-05-16T17:57:53.117Z,99047.41
2023-05-16T18:00:22.661Z,99043.72
2023-05-16T18:02:50.946Z,99036.50
2023-05-16T18:05:18.299Z,99038.38
2023-05-16T18:07:46.136Z,99029.91
2023-05-16T18:10:14.063Z,99030.81
2023-05-16T18:12:42.633Z,99035.13
2023-05-16T18:15:10.810Z,99028.16
2023-05-16T18:17:38.372Z,99022.75
2023-05-16T18:20:10.654Z,99030.06
2023-05-16T18:22:38.637Z,99029.03
2023-05-16T18:25:06.541Z,99027.25
2023-05-16T18:27:34.229Z,99032.66
2023-05-16T18:30:03.664Z,99037.06
2023-05-16T18:32:31.581Z,99042.22
2023-05-16T18:34:58.848Z,99037.97
2023-05-16T18:37:26.778Z,99040.44
2023-05-16T18:39:54.352Z,99038.66
2023-05-16T18:42:21.612Z,99034.94
2023-05-16T18:44:50.748Z,99040.41
2023-05-16T18:47:19.379Z,99041.09
2023-05-16T18:49:47.241Z,99040.09
2023-05-16T18:52:14.878Z,99034.50
2023-05-16T18:54:42.885Z,99035.63
2023-05-16T18:57:13.977Z,99038.72
2023-05-16T18:59:42.081Z,99033.97
2023-05-16T19:02:10.189Z,99028.91
2023-05-16T19:04:37.748Z,99028.62
2023-05-16T19:07:07.851Z,99029.09
2023-05-16T19:09:36.797Z,99035.06
2023-05-16T19:12:04.677Z,99049.59
2023-05-16T19:14:32.483Z,99038.63
2023-05-16T19:17:00.073Z,99042.72
2023-05-16T19:19:27.824Z,99037.66
2023-05-16T19:21:55.627Z,99044.69
2023-05-16T19:24:23.558Z,99053.25
2023-05-16T19:26:51.322Z,99051.22
2023-05-16T19:29:21.551Z,99049.00
2023-05-16T19:32:00.595Z,99050.59
2023-05-16T19:34:28.457Z,99061.94
2023-05-16T19:36:56.040Z,99051.50
2023-05-16T19:39:23.306Z,99047.41
2023-05-16T19:41:52.145Z,99051.00
2023-05-16T19:44:19.698Z,99050.03
2023-05-16T19:46:46.980Z,99044.03
2023-05-16T19:49:16.646Z,99046.69
2023-05-16T19:51:45.454Z,99037.94
2023-05-16T19:54:12.685Z,99027.31
2023-05-16T19:56:40.312Z,99031.75
2023-05-16T19:59:07.660Z,99039.47
2023-05-16T20:01:34.940Z,99043.19
2023-05-16T20:04:02.670Z,99045.88
2023-05-16T20:06:30.100Z,99050.25
2023-05-16T20:08:57.385Z,99043.13
2023-05-16T20:11:24.878Z,99049.94
2023-05-16T20:13:52.046Z,99052.94
2023-05-16T20:16:20.708Z,99055.78
2023-05-16T20:18:48.317Z,99056.72
2023-05-16T20:21:15.684Z,99050.84
2023-05-16T20:23:42.971Z,99049.66
2023-05-16T20:26:14.735Z,99054.72
2023-05-16T20:28:42.103Z,99051.50
2023-05-16T20:31:09.385Z,99055.31
2023-05-16T20:33:37.120Z,99047.31
2023-05-16T20:36:04.612Z,99045.31
2023-05-16T20:38:31.866Z,99046.09
2023-05-16T20:40:59.594Z,99053.19
2023-05-16T20:43:27.011Z,99057.28
2023-05-16T20:45:54.220Z,99040.84
2023-05-16T20:48:21.729Z,99042.50
2023-05-16T20:50:49.384Z,99040.78
2023-05-16T20:53:19.575Z,99037.91
2023-05-16T20:55:48.129Z,99047.38
2023-05-16T20:58:18.653Z,99048.87
2023-05-16T21:00:45.886Z,99038.03
2023-05-16T21:03:13.861Z,99056.16
2023-05-16T21:05:41.338Z,99048.94
2023-05-16T21:08:08.775Z,99046.06
2023-05-16T21:10:36.287Z,99042.47
2023-05-16T21:13:03.858Z,99039.84
2023-05-16T21:15:31.234Z,99046.69
2023-05-16T21:18:00.200Z,99043.38
2023-05-16T21:20:30.107Z,99046.31
2023-05-16T21:22:57.360Z,99046.59
2023-05-16T21:25:26.722Z,99047.16
2023-05-16T21:27:54.162Z,99049.22
2023-05-16T21:30:21.400Z,99046.25
2023-05-16T21:32:48.912Z,99041.50
2023-05-16T21:35:16.157Z,99032.78
2023-05-16T21:37:43.318Z,99026.03
2023-05-16T21:40:14.689Z,99024.91
2023-05-16T21:42:42.372Z,99026.88
2023-05-16T21:45:12.617Z,99026.59
2023-05-16T21:47:40.176Z,99019.91
2023-05-16T21:50:07.808Z,99027.28
2023-05-16T21:52:35.013Z,99027.19
2023-05-16T21:55:02.951Z,99026.22
2023-05-16T21:57:30.173Z,99026.25
2023-05-16T21:59:57.366Z,99024.00
2023-05-16T22:02:24.979Z,99032.00
2023-05-16T22:04:52.967Z,99033.31
2023-05-16T22:07:20.336Z,99042.13
2023-05-16T22:09:53.592Z,99033.31
2023-05-16T22:12:21.209Z,99033.25
2023-05-16T22:14:49.222Z,99039.56
2023-05-16T22:17:17.555Z,99036.44
2023-05-16T22:19:46.896Z,99027.78
2023-05-16T22:22:14.162Z,99036.44
2023-05-16T22:24:41.350Z,99036.97
2023-05-16T22:27:08.815Z,99038.91
2023-05-16T22:29:38.388Z,99039.13
2023-05-16T22:32:06.590Z,99042.34
2023-05-16T22:34:34.422Z,99028.56
2023-05-16T22:37:01.645Z,99025.87
2023-05-16T22:39:28.897Z,99030.03
2023-05-16T22:41:56.355Z,99027.69
2023-05-16T22:44:23.547Z,99018.56
2023-05-16T22:46:50.775Z,99018.91
2023-05-16T22:49:19.058Z,99021.38
2023-05-16T22:51:49.052Z,99034.31
2023-05-16T22:54:16.534Z,99036.00
2023-05-16T22:56:44.094Z,99034.50
2023-05-16T22:59:11.313Z,99033.81
2023-05-16T23:01:38.588Z,99037.03
2023-05-16T23:04:06.216Z,99033.47
2023-05-16T23:06:33.514Z,99046.34
2023-05-16T23:09:00.747Z,99042.38
2023-05-16T23:11:28.268Z,99048.66
2023-05-16T23:13:55.753Z,99039.03
2023-05-16T23:16:22.973Z,99050.09
2023-05-16T23:18:50.660Z,99047.81
2023-05-16T23:21:18.096Z,99059.25
2023-05-16T23:23:45.310Z,99053.66
2023-05-16T23:26:12.840Z,99051.44
2023-05-16T23:28:40.036Z,99051.00
2023-05-16T23:31:07.417Z,99054.38
2023-05-16T23:33:34.953Z,99054.22
2023-05-16T23:36:02.152Z,99069.31
2023-05-16T23:38:32.246Z,99069.13
2023-05-16T23:40:59.787Z,99064.00
2023-05-16T23:43:27.094Z,99056.53
2023-05-16T23:45:54.262Z,99060.34
2023-05-16T23:48:21.830Z,99066.25
2023-05-16T23:50:49.159Z,99057.09
2023-05-16T23:53:16.723Z,99063.66
2023-05-16T23:55:44.228Z,99061.03
2023-05-16T23:58:11.447Z,99066.53
